sensor_id;sensor_type;location;lat;lon;timestamp;temperature;humidity
17632;DHT22;8934;51.194;17.150;2023-07-28T05:41:46;16.30;99.90
17632;DHT22;8934;51.194;17.150;2023-07-28T05:44:35;16.90;99.90
17632;DHT22;8934;51.194;17.150;2023-07-28T05:47:23;16.90;99.90
17632;DHT22;8934;51.194;17.150;2023-07-28T05:50:11;16.90;99.90
17632;DHT22;8934;51.194;17.150;2023-07-28T05:52:59;17.00;99.90
17632;DHT22;8934;51.194;17.150;2023-07-28T05:55:46;17.00;99.90
17632;DHT22;8934;51.194;17.150;2023-07-28T05:58:36;17.10;99.90
17632;DHT22;8934;51.194;17.150;2023-07-28T06:01:24;17.10;99.90
17632;DHT22;8934;51.194;17.150;2023-07-28T06:04:32;17.20;99.90
17632;DHT22;8934;51.194;17.150;2023-07-28T06:07:22;17.30;99.90
17632;DHT22;8934;51.194;17.150;2023-07-28T06:10:10;17.30;99.90
17632;DHT22;8934;51.194;17.150;2023-07-28T07:28:52;17.40;99.90
17632;DHT22;8934;51.194;17.150;2023-07-28T07:31:40;19.40;99.90
17632;DHT22;8934;51.194;17.150;2023-07-28T08:51:18;19.60;99.90
17632;DHT22;8934;51.194;17.150;2023-07-28T08:54:13;19.70;99.90
17632;DHT22;8934;51.194;17.150;2023-07-28T08:57:03;19.80;99.90
17632;DHT22;8934;51.194;17.150;2023-07-28T09:04:48;20.00;99.90
17632;DHT22;8934;51.194;17.150;2023-07-28T09:56:16;22.20;99.90
17632;DHT22;8934;51.194;17.150;2023-07-28T09:59:10;23.80;99.90
17632;DHT22;8934;51.194;17.150;2023-07-28T10:01:59;23.90;99.90
17632;DHT22;8934;51.194;17.150;2023-07-28T10:04:47;23.80;99.90
17632;DHT22;8934;51.194;17.150;2023-07-28T10:07:36;23.70;99.90
17632;DHT22;8934;51.194;17.150;2023-07-28T10:10:24;23.70;99.90
17632;DHT22;8934;51.194;17.150;2023-07-28T10:13:21;24.20;99.90
17632;DHT22;8934;51.194;17.150;2023-07-28T10:16:09;24.70;99.90
17632;DHT22;8934;51.194;17.150;2023-07-28T10:18:59;25.00;99.90
17632;DHT22;8934;51.194;17.150;2023-07-28T10:21:47;25.00;99.90
17632;DHT22;8934;51.194;17.150;2023-07-28T10:24:50;24.90;99.90
17632;DHT22;8934;51.194;17.150;2023-07-28T10:27:44;25.20;99.90
17632;DHT22;8934;51.194;17.150;2023-07-28T10:30:41;25.50;99.90
17632;DHT22;8934;51.194;17.150;2023-07-28T10:33:39;25.90;99.90
17632;DHT22;8934;51.194;17.150;2023-07-28T10:36:33;26.00;99.90
17632;DHT22;8934;51.194;17.150;2023-07-28T10:39:22;25.90;99.90
17632;DHT22;8934;51.194;17.150;2023-07-28T10:42:10;26.50;99.90
17632;DHT22;8934;51.194;17.150;2023-07-28T10:44:57;27.10;99.90
17632;DHT22;8934;51.194;17.150;2023-07-28T10:47:46;27.50;99.90
17632;DHT22;8934;51.194;17.150;2023-07-28T10:50:35;27.30;99.90
17632;DHT22;8934;51.194;17.150;2023-07-28T10:53:22;26.90;99.90
17632;DHT22;8934;51.194;17.150;2023-07-28T10:56:11;26.30;99.90
17632;DHT22;8934;51.194;17.150;2023-07-28T10:59:01;25.60;99.90
17632;DHT22;8934;51.194;17.150;2023-07-28T11:01:49;25.20;99.90
17632;DHT22;8934;51.194;17.150;2023-07-28T11:04:48;25.50;99.90
17632;DHT22;8934;51.194;17.150;2023-07-28T11:07:35;25.70;99.90
17632;DHT22;8934;51.194;17.150;2023-07-28T11:10:24;25.50;99.90
17632;DHT22;8934;51.194;17.150;2023-07-28T11:13:13;25.60;99.90
17632;DHT22;8934;51.194;17.150;2023-07-28T11:16:21;25.80;99.90
17632;DHT22;8934;51.194;17.150;2023-07-28T11:19:11;26.40;99.90
17632;DHT22;8934;51.194;17.150;2023-07-28T11:22:01;27.10;99.90
17632;DHT22;8934;51.194;17.150;2023-07-28T11:24:51;27.30;99.90
17632;DHT22;8934;51.194;17.150;2023-07-28T11:27:40;27.50;99.90
17632;DHT22;8934;51.194;17.150;2023-07-28T11:30:27;27.40;99.90
17632;DHT22;8934;51.194;17.150;2023-07-28T11:33:15;27.60;99.90
17632;DHT22;8934;51.194;17.150;2023-07-28T11:36:04;27.90;99.90
17632;DHT22;8934;51.194;17.150;2023-07-28T11:38:54;28.30;99.90
17632;DHT22;8934;51.194;17.150;2023-07-28T11:41:43;28.30;99.90
17632;DHT22;8934;51.194;17.150;2023-07-28T11:44:34;28.40;99.90
17632;DHT22;8934;51.194;17.150;2023-07-28T11:47:23;28.80;99.90
17632;DHT22;8934;51.194;17.150;2023-07-28T11:50:10;29.20;99.90
17632;DHT22;8934;51.194;17.150;2023-07-28T11:52:58;29.50;99.90
17632;DHT22;8934;51.194;17.150;2023-07-28T11:55:47;29.70;99.90
17632;DHT22;8934;51.194;17.150;2023-07-28T11:58:35;29.80;99.90
17632;DHT22;8934;51.194;17.150;2023-07-28T12:01:23;29.80;99.90
17632;DHT22;8934;51.194;17.150;2023-07-28T12:04:20;29.60;99.90
17632;DHT22;8934;51.194;17.150;2023-07-28T12:07:13;29.30;99.90
17632;DHT22;8934;51.194;17.150;2023-07-28T12:10:03;29.30;99.90
17632;DHT22;8934;51.194;17.150;2023-07-28T12:12:54;29.40;99.90
17632;DHT22;8934;51.194;17.150;2023-07-28T12:15:45;29.50;99.90
17632;DHT22;8934;51.194;17.150;2023-07-28T12:18:35;29.50;99.90
17632;DHT22;8934;51.194;17.150;2023-07-28T12:21:29;30.00;99.90
17632;DHT22;8934;51.194;17.150;2023-07-28T12:24:18;30.00;99.90
17632;DHT22;8934;51.194;17.150;2023-07-28T12:27:10;30.00;99.90
17632;DHT22;8934;51.194;17.150;2023-07-28T12:30:01;29.70;99.90
17632;DHT22;8934;51.194;17.150;2023-07-28T12:32:50;29.60;99.90
17632;DHT22;8934;51.194;17.150;2023-07-28T12:35:40;29.20;99.90
17632;DHT22;8934;51.194;17.150;2023-07-28T12:38:31;28.70;99.90
17632;DHT22;8934;51.194;17.150;2023-07-28T12:41:21;28.10;99.90
17632;DHT22;8934;51.194;17.150;2023-07-28T12:44:25;28.00;99.90
17632;DHT22;8934;51.194;17.150;2023-07-28T12:47:17;28.50;99.90
17632;DHT22;8934;51.194;17.150;2023-07-28T12:50:06;28.80;99.90
17632;DHT22;8934;51.194;17.150;2023-07-28T12:53:05;29.00;99.90
17632;DHT22;8934;51.194;17.150;2023-07-28T12:56:03;29.30;99.90
17632;DHT22;8934;51.194;17.150;2023-07-28T12:58:53;29.50;99.90
17632;DHT22;8934;51.194;17.150;2023-07-28T13:01:43;29.30;99.90
17632;DHT22;8934;51.194;17.150;2023-07-28T13:04:33;29.20;99.90
17632;DHT22;8934;51.194;17.150;2023-07-28T13:07:20;29.20;99.90
17632;DHT22;8934;51.194;17.150;2023-07-28T13:10:12;28.80;99.90
17632;DHT22;8934;51.194;17.150;2023-07-28T13:13:03;28.50;99.90
17632;DHT22;8934;51.194;17.150;2023-07-28T13:15:51;28.90;99.90
17632;DHT22;8934;51.194;17.150;2023-07-28T13:18:39;29.50;99.90
17632;DHT22;8934;51.194;17.150;2023-07-28T13:21:28;29.70;99.90
17632;DHT22;8934;51.194;17.150;2023-07-28T13:24:15;29.60;99.90
17632;DHT22;8934;51.194;17.150;2023-07-28T13:27:04;29.70;99.90
17632;DHT22;8934;51.194;17.150;2023-07-28T13:29:51;30.10;99.90
17632;DHT22;8934;51.194;17.150;2023-07-28T13:32:40;30.30;99.90
17632;DHT22;8934;51.194;17.150;2023-07-28T13:35:28;30.30;99.90
17632;DHT22;8934;51.194;17.150;2023-07-28T13:38:17;30.60;99.90
17632;DHT22;8934;51.194;17.150;2023-07-28T13:41:05;30.80;99.90
17632;DHT22;8934;51.194;17.150;2023-07-28T13:43:53;30.80;99.20
17632;DHT22;8934;51.194;17.150;2023-07-28T13:46:48;30.20;99.90
17632;DHT22;8934;51.194;17.150;2023-07-28T13:49:35;29.90;99.90
17632;DHT22;8934;51.194;17.150;2023-07-28T13:52:37;29.50;99.90
17632;DHT22;8934;51.194;17.150;2023-07-28T13:55:26;29.30;99.90
17632;DHT22;8934;51.194;17.150;2023-07-28T13:58:16;29.00;99.90
17632;DHT22;8934;51.194;17.150;2023-07-28T14:01:04;29.00;99.90
17632;DHT22;8934;51.194;17.150;2023-07-28T14:03:51;29.20;99.90
17632;DHT22;8934;51.194;17.150;2023-07-28T14:06:39;28.90;99.90
17632;DHT22;8934;51.194;17.150;2023-07-28T14:09:27;28.40;99.90
17632;DHT22;8934;51.194;17.150;2023-07-28T14:12:16;28.00;99.90
17632;DHT22;8934;51.194;17.150;2023-07-28T14:15:06;27.80;99.90
17632;DHT22;8934;51.194;17.150;2023-07-28T14:17:54;27.70;99.90
17632;DHT22;8934;51.194;17.150;2023-07-28T14:20:42;27.80;99.90
17632;DHT22;8934;51.194;17.150;2023-07-28T14:23:29;28.20;99.90
17632;DHT22;8934;51.194;17.150;2023-07-28T14:26:16;29.20;99.90
17632;DHT22;8934;51.194;17.150;2023-07-28T14:29:06;29.60;99.90
17632;DHT22;8934;51.194;17.150;2023-07-28T14:31:54;29.90;99.90
17632;DHT22;8934;51.194;17.150;2023-07-28T14:34:41;30.10;99.90
17632;DHT22;8934;51.194;17.150;2023-07-28T14:37:29;30.10;99.90
17632;DHT22;8934;51.194;17.150;2023-07-28T14:40:17;29.80;99.90
17632;DHT22;8934;51.194;17.150;2023-07-28T14:43:04;30.00;99.90
17632;DHT22;8934;51.194;17.150;2023-07-28T14:45:53;30.50;99.60
17632;DHT22;8934;51.194;17.150;2023-07-28T14:48:40;31.00;98.80
17632;DHT22;8934;51.194;17.150;2023-07-28T14:51:28;31.20;97.30
17632;DHT22;8934;51.194;17.150;2023-07-28T14:54:16;31.20;96.30
17632;DHT22;8934;51.194;17.150;2023-07-28T14:57:03;30.60;96.90
17632;DHT22;8934;51.194;17.150;2023-07-28T14:59:59;30.40;97.80
17632;DHT22;8934;51.194;17.150;2023-07-28T15:02:48;30.70;98.10
17632;DHT22;8934;51.194;17.150;2023-07-28T15:05:36;31.10;96.50
17632;DHT22;8934;51.194;17.150;2023-07-28T15:08:24;31.20;96.00
17632;DHT22;8934;51.194;17.150;2023-07-28T15:11:11;31.20;96.60
17632;DHT22;8934;51.194;17.150;2023-07-28T15:14:00;31.50;96.20
17632;DHT22;8934;51.194;17.150;2023-07-28T15:16:47;31.50;95.80
17632;DHT22;8934;51.194;17.150;2023-07-28T15:19:37;31.80;95.00
17632;DHT22;8934;51.194;17.150;2023-07-28T15:22:25;31.50;95.50
17632;DHT22;8934;51.194;17.150;2023-07-28T15:25:13;31.10;96.10
17632;DHT22;8934;51.194;17.150;2023-07-28T15:28:01;31.30;96.20
17632;DHT22;8934;51.194;17.150;2023-07-28T15:30:52;31.70;95.70
17632;DHT22;8934;51.194;17.150;2023-07-28T15:33:42;31.40;95.40
17632;DHT22;8934;51.194;17.150;2023-07-28T15:36:31;31.30;95.60
17632;DHT22;8934;51.194;17.150;2023-07-28T15:39:19;31.50;96.30
17632;DHT22;8934;51.194;17.150;2023-07-28T15:42:06;32.00;94.50
17632;DHT22;8934;51.194;17.150;2023-07-28T15:44:54;31.70;94.40
17632;DHT22;8934;51.194;17.150;2023-07-28T15:47:41;31.40;94.80
17632;DHT22;8934;51.194;17.150;2023-07-28T15:50:29;31.50;95.00
17632;DHT22;8934;51.194;17.150;2023-07-28T15:53:18;31.90;94.10
17632;DHT22;8934;51.194;17.150;2023-07-28T15:56:07;32.20;93.60
17632;DHT22;8934;51.194;17.150;2023-07-28T15:58:58;32.50;92.70
17632;DHT22;8934;51.194;17.150;2023-07-28T16:01:45;32.40;92.90
17632;DHT22;8934;51.194;17.150;2023-07-28T16:04:34;32.50;92.90
17632;DHT22;8934;51.194;17.150;2023-07-28T16:07:23;32.50;93.10
17632;DHT22;8934;51.194;17.150;2023-07-28T16:10:12;32.50;92.50
17632;DHT22;8934;51.194;17.150;2023-07-28T16:13:00;32.50;92.10
17632;DHT22;8934;51.194;17.150;2023-07-28T16:15:48;32.70;93.00
17632;DHT22;8934;51.194;17.150;2023-07-28T16:18:36;33.00;91.20
17632;DHT22;8934;51.194;17.150;2023-07-28T16:21:23;32.90;90.80
17632;DHT22;8934;51.194;17.150;2023-07-28T16:24:11;32.40;91.40
17632;DHT22;8934;51.194;17.150;2023-07-28T16:27:00;32.10;92.60
17632;DHT22;8934;51.194;17.150;2023-07-28T16:29:50;32.10;91.90
17632;DHT22;8934;51.194;17.150;2023-07-28T16:32:38;31.70;92.40
17632;DHT22;8934;51.194;17.150;2023-07-28T16:35:26;31.70;93.00
17632;DHT22;8934;51.194;17.150;2023-07-28T16:38:13;31.80;93.20
17632;DHT22;8934;51.194;17.150;2023-07-28T16:41:01;31.40;92.40
17632;DHT22;8934;51.194;17.150;2023-07-28T16:43:50;30.50;93.60
17632;DHT22;8934;51.194;17.150;2023-07-28T16:46:38;29.70;94.50
17632;DHT22;8934;51.194;17.150;2023-07-28T16:49:26;29.10;95.30
17632;DHT22;8934;51.194;17.150;2023-07-28T16:52:14;28.50;96.50
17632;DHT22;8934;51.194;17.150;2023-07-28T16:55:02;28.00;97.40
17632;DHT22;8934;51.194;17.150;2023-07-28T16:57:50;27.60;97.90
17632;DHT22;8934;51.194;17.150;2023-07-28T17:00:39;27.10;98.50
17632;DHT22;8934;51.194;17.150;2023-07-28T17:03:27;26.80;99.30
17632;DHT22;8934;51.194;17.150;2023-07-28T17:06:15;26.50;99.80
17632;DHT22;8934;51.194;17.150;2023-07-28T17:09:03;26.30;99.90
17632;DHT22;8934;51.194;17.150;2023-07-28T17:11:55;26.10;99.90
17632;DHT22;8934;51.194;17.150;2023-07-28T17:14:44;25.90;99.90
17632;DHT22;8934;51.194;17.150;2023-07-28T17:17:33;25.50;99.90
17632;DHT22;8934;51.194;17.150;2023-07-28T17:20:21;25.10;99.90
17632;DHT22;8934;51.194;17.150;2023-07-28T17:23:09;24.70;99.90
17632;DHT22;8934;51.194;17.150;2023-07-28T17:25:57;24.40;99.90
17632;DHT22;8934;51.194;17.150;2023-07-28T17:28:45;24.30;99.90
17632;DHT22;8934;51.194;17.150;2023-07-28T17:31:32;24.20;99.90
17632;DHT22;8934;51.194;17.150;2023-07-28T17:34:22;24.10;99.90
17632;DHT22;8934;51.194;17.150;2023-07-28T17:37:10;23.90;99.90
17632;DHT22;8934;51.194;17.150;2023-07-28T17:39:57;23.70;99.90
17632;DHT22;8934;51.194;17.150;2023-07-28T17:42:45;23.50;99.90
17632;DHT22;8934;51.194;17.150;2023-07-28T17:45:33;23.30;99.90
17632;DHT22;8934;51.194;17.150;2023-07-28T17:48:21;23.20;99.90
17632;DHT22;8934;51.194;17.150;2023-07-28T17:51:10;23.00;99.90
17632;DHT22;8934;51.194;17.150;2023-07-28T17:53:58;22.90;99.90
17632;DHT22;8934;51.194;17.150;2023-07-28T17:56:46;22.80;99.90
17632;DHT22;8934;51.194;17.150;2023-07-28T17:59:33;22.80;99.90
17632;DHT22;8934;51.194;17.150;2023-07-28T18:02:21;22.60;99.90
17632;DHT22;8934;51.194;17.150;2023-07-28T18:05:09;22.60;99.90
17632;DHT22;8934;51.194;17.150;2023-07-28T18:07:58;22.50;99.90
17632;DHT22;8934;51.194;17.150;2023-07-28T18:10:47;22.40;99.90
17632;DHT22;8934;51.194;17.150;2023-07-28T18:13:35;22.30;99.90
17632;DHT22;8934;51.194;17.150;2023-07-28T18:16:23;22.20;99.90
17632;DHT22;8934;51.194;17.150;2023-07-28T18:19:12;22.10;99.90
17632;DHT22;8934;51.194;17.150;2023-07-28T18:21:59;21.90;99.90
17632;DHT22;8934;51.194;17.150;2023-07-28T18:24:48;21.80;99.90
17632;DHT22;8934;51.194;17.150;2023-07-28T18:27:36;21.70;99.90
17632;DHT22;8934;51.194;17.150;2023-07-28T18:30:23;21.60;99.90
17632;DHT22;8934;51.194;17.150;2023-07-28T18:33:11;21.50;99.90
17632;DHT22;8934;51.194;17.150;2023-07-28T18:35:59;21.40;99.90
17632;DHT22;8934;51.194;17.150;2023-07-28T18:38:47;21.30;99.90
17632;DHT22;8934;51.194;17.150;2023-07-28T18:41:36;21.20;99.90
17632;DHT22;8934;51.194;17.150;2023-07-28T18:44:23;21.10;99.90
17632;DHT22;8934;51.194;17.150;2023-07-28T18:47:11;21.00;99.90
17632;DHT22;8934;51.194;17.150;2023-07-28T18:49:59;20.90;99.90
17632;DHT22;8934;51.194;17.150;2023-07-28T18:52:47;20.80;99.90
17632;DHT22;8934;51.194;17.150;2023-07-28T18:55:35;20.60;99.90
17632;DHT22;8934;51.194;17.150;2023-07-28T18:58:24;20.50;99.90
17632;DHT22;8934;51.194;17.150;2023-07-28T19:01:12;20.30;99.90
17632;DHT22;8934;51.194;17.150;2023-07-28T19:04:00;20.20;99.90
17632;DHT22;8934;51.194;17.150;2023-07-28T19:06:47;20.00;99.90
17632;DHT22;8934;51.194;17.150;2023-07-28T19:09:35;19.90;99.90
17632;DHT22;8934;51.194;17.150;2023-07-28T19:12:23;19.80;99.90
17632;DHT22;8934;51.194;17.150;2023-07-28T19:15:12;19.60;99.90
17632;DHT22;8934;51.194;17.150;2023-07-28T19:18:20;19.50;99.90
17632;DHT22;8934;51.194;17.150;2023-07-28T19:21:09;19.40;99.90
17632;DHT22;8934;51.194;17.150;2023-07-28T19:23:56;19.20;99.90
17632;DHT22;8934;51.194;17.150;2023-07-28T19:26:44;19.10;99.90
17632;DHT22;8934;51.194;17.150;2023-07-28T19:29:32;19.00;99.90
17632;DHT22;8934;51.194;17.150;2023-07-28T19:32:21;18.90;99.90
17632;DHT22;8934;51.194;17.150;2023-07-28T19:35:12;18.80;99.90
17632;DHT22;8934;51.194;17.150;2023-07-28T19:38:00;18.70;99.90
17632;DHT22;8934;51.194;17.150;2023-07-28T19:40:48;18.70;99.90
17632;DHT22;8934;51.194;17.150;2023-07-28T19:43:36;18.60;99.90
17632;DHT22;8934;51.194;17.150;2023-07-28T19:46:23;18.50;99.90
17632;DHT22;8934;51.194;17.150;2023-07-28T19:49:15;18.40;99.90
17632;DHT22;8934;51.194;17.150;2023-07-28T19:52:03;18.30;99.90
17632;DHT22;8934;51.194;17.150;2023-07-28T19:54:51;18.20;99.90
17632;DHT22;8934;51.194;17.150;2023-07-28T19:57:39;18.10;99.90
17632;DHT22;8934;51.194;17.150;2023-07-28T20:00:27;18.10;99.90
17632;DHT22;8934;51.194;17.150;2023-07-28T20:03:15;18.00;99.90
17632;DHT22;8934;51.194;17.150;2023-07-28T20:06:04;18.00;99.90
17632;DHT22;8934;51.194;17.150;2023-07-28T20:08:52;17.90;99.90
17632;DHT22;8934;51.194;17.150;2023-07-28T20:11:39;17.90;99.90
17632;DHT22;8934;51.194;17.150;2023-07-28T20:14:26;17.80;99.90
17632;DHT22;8934;51.194;17.150;2023-07-28T20:17:14;17.70;99.90
17632;DHT22;8934;51.194;17.150;2023-07-28T20:20:02;17.60;99.90
17632;DHT22;8934;51.194;17.150;2023-07-28T20:22:51;17.50;99.90
17632;DHT22;8934;51.194;17.150;2023-07-28T20:25:43;17.50;99.90
17632;DHT22;8934;51.194;17.150;2023-07-28T20:28:30;17.40;99.90
17632;DHT22;8934;51.194;17.150;2023-07-28T20:31:18;17.30;99.90
17632;DHT22;8934;51.194;17.150;2023-07-28T20:34:07;17.30;99.90
17632;DHT22;8934;51.194;17.150;2023-07-28T20:36:55;17.20;99.90
17632;DHT22;8934;51.194;17.150;2023-07-28T20:39:46;17.20;99.90
17632;DHT22;8934;51.194;17.150;2023-07-28T20:42:33;17.10;99.90
17632;DHT22;8934;51.194;17.150;2023-07-28T20:45:21;17.10;99.90
17632;DHT22;8934;51.194;17.150;2023-07-28T20:48:09;17.00;99.90
17632;DHT22;8934;51.194;17.150;2023-07-28T20:50:57;17.00;99.90
17632;DHT22;8934;51.194;17.150;2023-07-28T20:53:45;16.90;99.90
17632;DHT22;8934;51.194;17.150;2023-07-28T20:56:34;16.90;99.90
17632;DHT22;8934;51.194;17.150;2023-07-28T20:59:22;16.80;99.90
17632;DHT22;8934;51.194;17.150;2023-07-28T21:02:10;16.80;99.90
17632;DHT22;8934;51.194;17.150;2023-07-28T21:04:59;16.70;99.90
17632;DHT22;8934;51.194;17.150;2023-07-28T21:07:47;16.70;99.90
17632;DHT22;8934;51.194;17.150;2023-07-28T21:10:35;16.60;99.90
17632;DHT22;8934;51.194;17.150;2023-07-28T21:13:24;16.60;99.90
17632;DHT22;8934;51.194;17.150;2023-07-28T21:16:11;16.60;99.90
17632;DHT22;8934;51.194;17.150;2023-07-28T21:18:59;16.50;99.90
17632;DHT22;8934;51.194;17.150;2023-07-28T21:21:47;16.50;99.90
17632;DHT22;8934;51.194;17.150;2023-07-28T21:24:35;16.40;99.90
17632;DHT22;8934;51.194;17.150;2023-07-28T21:27:22;16.30;99.90
17632;DHT22;8934;51.194;17.150;2023-07-28T21:30:11;16.30;99.90
17632;DHT22;8934;51.194;17.150;2023-07-28T21:33:01;16.20;99.90
17632;DHT22;8934;51.194;17.150;2023-07-28T21:35:49;16.20;99.90
17632;DHT22;8934;51.194;17.150;2023-07-28T21:38:37;16.10;99.90
17632;DHT22;8934;51.194;17.150;2023-07-28T21:41:24;16.10;99.90
17632;DHT22;8934;51.194;17.150;2023-07-28T21:44:12;16.00;99.90
17632;DHT22;8934;51.194;17.150;2023-07-28T21:47:01;16.00;99.90
17632;DHT22;8934;51.194;17.150;2023-07-28T21:49:49;16.00;99.90
17632;DHT22;8934;51.194;17.150;2023-07-28T21:52:39;15.90;99.90
17632;DHT22;8934;51.194;17.150;2023-07-28T21:55:28;15.90;99.90
17632;DHT22;8934;51.194;17.150;2023-07-28T21:58:16;15.80;99.90
17632;DHT22;8934;51.194;17.150;2023-07-28T22:01:03;15.80;99.90
17632;DHT22;8934;51.194;17.150;2023-07-28T22:03:52;15.70;99.90
17632;DHT22;8934;51.194;17.150;2023-07-28T22:06:40;15.70;99.90
17632;DHT22;8934;51.194;17.150;2023-07-28T22:09:28;15.70;99.90
17632;DHT22;8934;51.194;17.150;2023-07-28T22:12:16;15.70;99.90
17632;DHT22;8934;51.194;17.150;2023-07-28T22:15:05;15.60;99.90
17632;DHT22;8934;51.194;17.150;2023-07-28T22:17:53;15.60;99.90
17632;DHT22;8934;51.194;17.150;2023-07-28T22:20:42;15.60;99.90
17632;DHT22;8934;51.194;17.150;2023-07-28T22:23:30;15.50;99.90
17632;DHT22;8934;51.194;17.150;2023-07-28T22:26:17;15.50;99.90
17632;DHT22;8934;51.194;17.150;2023-07-28T22:29:05;15.50;99.90
17632;DHT22;8934;51.194;17.150;2023-07-28T22:31:52;15.40;99.90
17632;DHT22;8934;51.194;17.150;2023-07-28T22:34:40;15.40;99.90
17632;DHT22;8934;51.194;17.150;2023-07-28T22:37:29;15.30;99.90
17632;DHT22;8934;51.194;17.150;2023-07-28T22:40:16;15.30;99.90
17632;DHT22;8934;51.194;17.150;2023-07-28T22:43:04;15.30;99.90
17632;DHT22;8934;51.194;17.150;2023-07-28T22:45:52;15.20;99.90
17632;DHT22;8934;51.194;17.150;2023-07-28T22:48:39;15.20;99.90
17632;DHT22;8934;51.194;17.150;2023-07-28T22:51:27;15.20;99.90
17632;DHT22;8934;51.194;17.150;2023-07-28T22:54:16;15.10;99.90
17632;DHT22;8934;51.194;17.150;2023-07-28T22:57:05;15.10;99.90
17632;DHT22;8934;51.194;17.150;2023-07-28T22:59:53;15.10;99.90
17632;DHT22;8934;51.194;17.150;2023-07-28T23:02:41;15.10;99.90
17632;DHT22;8934;51.194;17.150;2023-07-28T23:05:30;15.10;99.90
17632;DHT22;8934;51.194;17.150;2023-07-28T23:08:18;15.10;99.90
17632;DHT22;8934;51.194;17.150;2023-07-28T23:11:07;15.10;99.90
17632;DHT22;8934;51.194;17.150;2023-07-28T23:13:55;15.10;99.90
17632;DHT22;8934;51.194;17.150;2023-07-28T23:16:42;15.00;99.90
17632;DHT22;8934;51.194;17.150;2023-07-28T23:19:30;15.00;99.90
17632;DHT22;8934;51.194;17.150;2023-07-28T23:22:18;15.00;99.90
17632;DHT22;8934;51.194;17.150;2023-07-28T23:25:07;15.00;99.90
17632;DHT22;8934;51.194;17.150;2023-07-28T23:27:56;15.00;99.90
17632;DHT22;8934;51.194;17.150;2023-07-28T23:30:43;15.00;99.90
17632;DHT22;8934;51.194;17.150;2023-07-28T23:33:31;15.00;99.90
17632;DHT22;8934;51.194;17.150;2023-07-28T23:36:19;15.00;99.90
17632;DHT22;8934;51.194;17.150;2023-07-28T23:39:06;15.00;99.90
17632;DHT22;8934;51.194;17.150;2023-07-28T23:41:55;15.10;99.90
17632;DHT22;8934;51.194;17.150;2023-07-28T23:44:45;15.10;99.90
17632;DHT22;8934;51.194;17.150;2023-07-28T23:47:32;15.00;99.90
17632;DHT22;8934;51.194;17.150;2023-07-28T23:50:20;14.90;99.90
17632;DHT22;8934;51.194;17.150;2023-07-28T23:53:08;14.90;99.90
17632;DHT22;8934;51.194;17.150;2023-07-28T23:55:56;14.80;99.90
17632;DHT22;8934;51.194;17.150;2023-07-28T23:58:44;14.80;99.90
